createdAt,value
2023-02-19T00:00:49.111Z,72.02
2023-02-19T00:01:52.146Z,71.53
2023-02-19T00:02:56.062Z,71.47
2023-02-19T00:04:03.067Z,71.65
2023-02-19T00:05:05.142Z,71.56
2023-02-19T00:06:09.402Z,71.90
2023-02-19T00:07:11.070Z,71.67
2023-02-19T00:08:12.721Z,72.04
2023-02-19T00:09:16.511Z,71.68
2023-02-19T00:10:18.338Z,72.03
2023-02-19T00:11:22.494Z,72.32
2023-02-19T00:12:24.138Z,72.77
2023-02-19T00:13:25.762Z,71.95
2023-02-19T00:14:27.370Z,73.22
2023-02-19T00:15:30.593Z,72.01
2023-02-19T00:16:37.972Z,72.44
2023-02-19T00:17:39.619Z,71.91
2023-02-19T00:18:42.215Z,72.34
2023-02-19T00:19:43.837Z,72.31
2023-02-19T00:20:45.462Z,72.08
2023-02-19T00:21:48.164Z,71.72
2023-02-19T00:22:49.804Z,72.21
2023-02-19T00:23:57.050Z,72.18
2023-02-19T00:24:58.704Z,72.67
2023-02-19T00:26:17.140Z,72.51
2023-02-19T00:27:20.423Z,71.83
2023-02-19T00:28:22.790Z,73.31
2023-02-19T00:29:25.082Z,71.79
2023-02-19T00:30:26.848Z,72.03
2023-02-19T00:31:34.068Z,71.93
2023-02-19T00:32:35.875Z,71.93
2023-02-19T00:33:37.486Z,72.01
2023-02-19T00:34:39.169Z,72.35
2023-02-19T00:35:40.816Z,72.69
2023-02-19T00:36:43.164Z,71.78
2023-02-19T00:37:44.805Z,72.29
2023-02-19T00:38:47.108Z,72.65
2023-02-19T00:39:48.769Z,72.45
2023-02-19T00:40:50.444Z,72.43
2023-02-19T00:41:52.474Z,72.35
2023-02-19T00:42:54.103Z,72.61
2023-02-19T00:43:55.701Z,72.81
2023-02-19T00:44:57.398Z,72.38
2023-02-19T00:45:58.974Z,72.82
2023-02-19T00:47:00.695Z,72.81
2023-02-19T00:48:02.302Z,73.34
2023-02-19T00:49:05.112Z,72.64
2023-02-19T00:50:06.739Z,72.40
2023-02-19T00:51:08.677Z,72.03
2023-02-19T00:52:10.570Z,72.83
2023-02-19T00:53:12.276Z,73.01
2023-02-19T00:54:14.265Z,72.42
2023-02-19T00:55:15.972Z,72.02
2023-02-19T00:56:17.814Z,72.29
2023-02-19T00:57:19.426Z,73.32
2023-02-19T00:58:21.024Z,73.10
2023-02-19T00:59:22.713Z,72.81
2023-02-19T01:00:24.378Z,72.83
2023-02-19T01:01:26.015Z,72.43
2023-02-19T01:02:27.755Z,72.66
2023-02-19T01:03:31.049Z,73.19
2023-02-19T01:04:32.697Z,72.72
2023-02-19T01:05:34.361Z,72.83
2023-02-19T01:06:36.269Z,73.06
2023-02-19T01:07:38.358Z,72.95
2023-02-19T01:08:40.676Z,72.72
2023-02-19T01:09:42.371Z,72.88
2023-02-19T01:10:44.683Z,73.17
2023-02-19T01:11:46.367Z,72.94
2023-02-19T01:12:48.007Z,73.30
2023-02-19T01:13:49.636Z,73.46
2023-02-19T01:14:51.425Z,72.92
2023-02-19T01:15:53.062Z,73.26
2023-02-19T01:16:54.685Z,73.28
2023-02-19T01:17:56.302Z,72.86
2023-02-19T01:18:58.358Z,72.79
2023-02-19T01:20:00.011Z,72.67
2023-02-19T01:21:09.448Z,73.10
2023-02-19T01:22:11.369Z,72.96
2023-02-19T01:23:13.635Z,72.71
2023-02-19T01:24:16.664Z,73.17
2023-02-19T01:25:18.455Z,73.02
2023-02-19T01:26:22.896Z,73.04
2023-02-19T01:27:24.551Z,73.54
2023-02-19T01:28:26.162Z,73.25
2023-02-19T01:29:27.824Z,73.12
2023-02-19T01:30:29.703Z,73.03
2023-02-19T01:31:31.551Z,73.49
2023-02-19T01:32:33.228Z,73.01
2023-02-19T01:33:35.226Z,73.05
2023-02-19T01:34:36.967Z,73.34
2023-02-19T01:35:39.438Z,74.04
2023-02-19T01:36:40.996Z,73.79
2023-02-19T01:37:42.829Z,72.94
2023-02-19T01:38:44.669Z,73.24
2023-02-19T01:39:47.518Z,72.84
2023-02-19T01:40:56.939Z,72.89
2023-02-19T01:41:58.689Z,73.30
2023-02-19T01:43:00.341Z,73.58
2023-02-19T01:44:27.955Z,73.12
2023-02-19T01:45:32.330Z,73.32
2023-02-19T01:46:35.372Z,73.36
2023-02-19T01:47:37.070Z,73.25
2023-02-19T01:48:39.431Z,72.84
2023-02-19T01:49:51.025Z,73.12
2023-02-19T01:51:03.900Z,73.31
2023-02-19T01:52:10.055Z,73.33
2023-02-19T01:53:13.556Z,74.69
2023-02-19T01:54:18.018Z,73.09
2023-02-19T01:55:20.088Z,73.35
2023-02-19T01:56:22.405Z,72.90
2023-02-19T01:57:28.090Z,73.56
2023-02-19T01:58:32.311Z,73.11
2023-02-19T01:59:34.290Z,72.83
2023-02-19T02:00:36.416Z,73.21
2023-02-19T02:01:39.093Z,73.27
2023-02-19T02:02:42.514Z,73.53
2023-02-19T02:03:45.849Z,73.14
2023-02-19T02:04:47.663Z,73.56
2023-02-19T02:06:02.088Z,73.36
2023-02-19T02:07:24.717Z,72.91
2023-02-19T02:08:45.391Z,72.80
2023-02-19T02:10:05.830Z,72.34
2023-02-19T02:11:07.496Z,72.85
2023-02-19T02:12:09.149Z,73.13
2023-02-19T02:13:10.763Z,72.68
2023-02-19T02:14:12.427Z,72.95
2023-02-19T02:15:15.252Z,73.16
2023-02-19T02:16:30.013Z,72.62
2023-02-19T02:17:36.644Z,72.83
2023-02-19T02:19:07.265Z,73.11
2023-02-19T02:20:15.351Z,72.66
2023-02-19T02:21:50.838Z,72.92
2023-02-19T02:22:58.456Z,72.83
2023-02-19T02:24:18.152Z,73.15
2023-02-19T02:25:31.711Z,73.48
2023-02-19T02:26:45.913Z,73.32
2023-02-19T02:28:11.329Z,73.71
2023-02-19T02:29:30.858Z,74.20
2023-02-19T02:30:38.200Z,74.35
2023-02-19T02:31:42.668Z,74.98
2023-02-19T02:33:06.510Z,74.76
2023-02-19T02:34:14.298Z,74.78
2023-02-19T02:35:19.309Z,75.11
2023-02-19T02:36:27.465Z,75.10
2023-02-19T02:37:33.052Z,74.41
2023-02-19T02:38:37.384Z,75.27
2023-02-19T02:39:39.882Z,75.19
2023-02-19T02:40:43.765Z,74.54
2023-02-19T02:42:10.217Z,75.22
2023-02-19T02:43:12.905Z,75.66
2023-02-19T02:44:14.581Z,77.80
2023-02-19T02:45:37.896Z,78.30
2023-02-19T02:46:45.609Z,78.76
2023-02-19T02:47:51.247Z,79.37
2023-02-19T02:48:58.953Z,79.18
2023-02-19T02:50:06.481Z,78.81
2023-02-19T02:51:20.037Z,78.81
2023-02-19T02:52:56.100Z,79.29
2023-02-19T02:54:35.549Z,79.01
2023-02-19T02:55:44.238Z,79.94
2023-02-19T02:56:48.434Z,80.13
2023-02-19T02:57:50.069Z,80.01
2023-02-19T02:58:52.686Z,79.52
2023-02-19T02:59:54.203Z,79.92
2023-02-19T03:01:23.144Z,79.13
2023-02-19T03:02:26.985Z,79.08
2023-02-19T03:03:30.955Z,78.23
2023-02-19T03:04:57.983Z,78.50
2023-02-19T03:06:04.801Z,78.44
2023-02-19T03:07:09.374Z,78.16
2023-02-19T03:08:18.325Z,79.83
2023-02-19T03:09:28.717Z,79.52
2023-02-19T03:10:32.580Z,79.85
2023-02-19T03:11:54.720Z,81.02
2023-02-19T03:13:16.245Z,81.49
2023-02-19T03:14:41.080Z,82.44
2023-02-19T03:16:05.933Z,83.33
2023-02-19T03:17:40.172Z,83.47
2023-02-19T03:19:01.917Z,83.79
2023-02-19T03:20:06.325Z,83.71
2023-02-19T03:21:10.242Z,84.65
2023-02-19T03:22:32.178Z,84.52
2023-02-19T03:23:54.838Z,84.45
2023-02-19T03:25:31.542Z,84.79
2023-02-19T03:26:35.312Z,84.92
2023-02-19T03:27:39.364Z,84.51
2023-02-19T03:29:01.175Z,85.50
2023-02-19T03:30:08.273Z,85.98
2023-02-19T03:31:13.251Z,85.90
2023-02-19T03:32:18.404Z,85.80
2023-02-19T03:33:26.728Z,86.43
2023-02-19T03:34:57.263Z,85.71
2023-02-19T03:36:02.950Z,85.30
2023-02-19T03:37:15.676Z,85.82
2023-02-19T03:38:20.681Z,86.21
2023-02-19T03:39:24.281Z,85.61
2023-02-19T03:40:29.377Z,86.17
2023-02-19T03:41:49.587Z,86.06
2023-02-19T03:43:21.877Z,87.18
2023-02-19T03:44:38.412Z,86.58
2023-02-19T03:45:46.420Z,86.78
2023-02-19T03:46:55.145Z,87.21
2023-02-19T03:48:15.144Z,86.43
2023-02-19T03:49:51.711Z,86.55
2023-02-19T03:51:39.142Z,86.63
2023-02-19T03:52:52.976Z,87.03
2023-02-19T03:54:13.300Z,87.08
2023-02-19T03:55:32.822Z,86.65
2023-02-19T03:56:39.237Z,86.98
2023-02-19T03:57:49.426Z,87.01
2023-02-19T03:58:53.224Z,86.83
2023-02-19T04:00:18.492Z,86.15
2023-02-19T04:01:44.648Z,86.39
2023-02-19T04:02:54.467Z,86.95
2023-02-19T04:04:04.560Z,87.15
2023-02-19T04:05:16.453Z,87.32
2023-02-19T04:06:28.619Z,86.58
2023-02-19T04:07:33.408Z,87.08
2023-02-19T04:08:35.846Z,87.45
2023-02-19T04:09:45.970Z,87.21
2023-02-19T04:10:52.092Z,86.91
2023-02-19T04:11:54.892Z,87.14
2023-02-19T04:13:13.121Z,86.60
2023-02-19T04:14:32.026Z,86.31
2023-02-19T04:15:34.426Z,86.37
2023-02-19T04:16:39.115Z,86.62
2023-02-19T04:17:45.455Z,86.57
2023-02-19T04:18:50.825Z,86.22
2023-02-19T04:19:53.464Z,86.23
2023-02-19T04:20:55.498Z,86.33
2023-02-19T04:21:57.362Z,86.30
2023-02-19T04:22:59.107Z,86.70
2023-02-19T04:24:04.131Z,86.91
2023-02-19T04:25:06.154Z,86.98
2023-02-19T04:26:08.618Z,87.25
2023-02-19T04:27:10.475Z,87.03
2023-02-19T04:28:14.894Z,87.05
2023-02-19T04:29:16.516Z,86.51
2023-02-19T04:30:18.407Z,86.98
2023-02-19T04:31:20.181Z,87.21
2023-02-19T04:32:21.825Z,87.31
2023-02-19T04:33:23.392Z,86.64
2023-02-19T04:34:25.153Z,86.58
2023-02-19T04:35:26.767Z,87.13
2023-02-19T04:36:28.383Z,86.80
2023-02-19T04:37:30.032Z,87.43
2023-02-19T04:38:31.628Z,86.95
2023-02-19T04:39:33.440Z,87.15
2023-02-19T04:40:35.026Z,86.70
2023-02-19T04:41:36.593Z,86.54
2023-02-19T04:42:38.336Z,86.58
2023-02-19T04:43:39.963Z,86.85
2023-02-19T04:44:41.590Z,87.26
2023-02-19T04:45:43.319Z,87.47
2023-02-19T04:46:44.906Z,87.15
2023-02-19T04:47:46.505Z,86.96
2023-02-19T04:48:48.118Z,86.97
2023-02-19T04:49:49.700Z,86.86
2023-02-19T04:50:51.338Z,86.92
2023-02-19T04:51:52.912Z,86.83
2023-02-19T04:52:54.504Z,86.54
2023-02-19T04:53:56.415Z,86.78
2023-02-19T04:54:57.992Z,86.27
2023-02-19T04:56:06.705Z,86.96
2023-02-19T04:57:08.404Z,86.61
2023-02-19T04:58:10.053Z,86.81
2023-02-19T04:59:12.631Z,86.75
2023-02-19T05:00:18.022Z,86.87
2023-02-19T05:01:19.702Z,87.05
2023-02-19T05:02:21.248Z,86.55
2023-02-19T05:03:22.867Z,86.79
2023-02-19T05:04:25.165Z,86.72
2023-02-19T05:05:26.931Z,86.67
2023-02-19T05:06:28.604Z,86.31
2023-02-19T05:07:30.196Z,86.17
2023-02-19T05:08:31.981Z,86.69
2023-02-19T05:09:33.584Z,87.00
2023-02-19T05:10:35.270Z,86.77
2023-02-19T05:11:36.871Z,86.91
2023-02-19T05:12:38.462Z,86.70
2023-02-19T05:13:40.476Z,86.39
2023-02-19T05:14:42.216Z,86.24
2023-02-19T05:15:57.549Z,86.54
2023-02-19T05:16:59.164Z,86.18
2023-02-19T05:18:00.821Z,85.98
2023-02-19T05:19:02.440Z,86.09
2023-02-19T05:20:04.385Z,85.64
2023-02-19T05:21:06.207Z,85.51
2023-02-19T05:22:07.961Z,85.85
2023-02-19T05:23:09.527Z,85.75
2023-02-19T05:24:11.193Z,85.72
2023-02-19T05:25:12.847Z,85.82
2023-02-19T05:26:18.629Z,85.48
2023-02-19T05:27:20.213Z,84.75
2023-02-19T05:28:28.556Z,85.24
2023-02-19T05:29:31.222Z,85.24
2023-02-19T05:30:32.890Z,85.57
2023-02-19T05:31:34.663Z,85.35
2023-02-19T05:32:36.830Z,85.41
2023-02-19T05:33:38.718Z,85.18
2023-02-19T05:34:40.281Z,85.10
2023-02-19T05:35:52.494Z,85.17
2023-02-19T05:36:54.139Z,85.24
2023-02-19T05:37:55.745Z,84.79
2023-02-19T05:38:57.937Z,84.93
2023-02-19T05:39:59.494Z,84.91
2023-02-19T05:41:18.930Z,84.95
2023-02-19T05:42:20.550Z,84.80
2023-02-19T05:43:22.157Z,84.79
2023-02-19T05:44:23.960Z,85.26
2023-02-19T05:45:26.118Z,84.99
2023-02-19T05:46:31.962Z,84.66
2023-02-19T05:47:33.587Z,84.11
2023-02-19T05:48:35.182Z,83.94
2023-02-19T05:49:36.792Z,84.22
2023-02-19T05:50:39.893Z,84.23
2023-02-19T05:51:50.809Z,84.30
2023-02-19T05:52:52.615Z,84.30
2023-02-19T05:53:55.432Z,84.09
2023-02-19T05:54:57.047Z,84.22
2023-02-19T05:55:58.811Z,84.18
2023-02-19T05:57:00.464Z,84.95
2023-02-19T05:58:02.120Z,84.50
2023-02-19T05:59:07.811Z,84.40
2023-02-19T06:00:11.399Z,85.00
2023-02-19T06:01:17.947Z,83.95
2023-02-19T06:02:19.498Z,84.18
2023-02-19T06:03:21.551Z,84.28
2023-02-19T06:04:23.511Z,84.36
2023-02-19T06:05:25.177Z,85.10
2023-02-19T06:06:27.471Z,84.74
2023-02-19T06:07:29.083Z,84.38
2023-02-19T06:08:30.651Z,84.48
2023-02-19T06:09:32.334Z,84.36
2023-02-19T06:10:34.032Z,84.74
2023-02-19T06:11:35.983Z,84.84
2023-02-19T06:12:38.494Z,84.66
2023-02-19T06:13:39.943Z,84.54
2023-02-19T06:14:41.640Z,84.80
2023-02-19T06:15:43.269Z,84.45
2023-02-19T06:16:44.882Z,84.87
2023-02-19T06:17:46.494Z,84.61
2023-02-19T06:18:49.622Z,84.35
2023-02-19T06:19:51.189Z,84.00
2023-02-19T06:20:52.836Z,84.48
2023-02-19T06:21:54.395Z,84.67
2023-02-19T06:22:56.068Z,84.53
2023-02-19T06:23:57.663Z,84.82
2023-02-19T06:24:59.237Z,84.51
2023-02-19T06:26:16.105Z,84.53
2023-02-19T06:27:17.783Z,84.66
2023-02-19T06:28:19.342Z,84.49
2023-02-19T06:29:20.927Z,84.88
2023-02-19T06:30:22.669Z,84.70
2023-02-19T06:31:24.351Z,84.42
2023-02-19T06:32:26.102Z,84.12
2023-02-19T06:33:28.502Z,84.30
2023-02-19T06:34:30.122Z,84.59
2023-02-19T06:35:31.807Z,84.08
2023-02-19T06:36:33.797Z,84.22
2023-02-19T06:37:35.441Z,84.25
2023-02-19T06:38:37.078Z,84.46
2023-02-19T06:39:38.806Z,84.38
2023-02-19T06:40:40.484Z,84.42
2023-02-19T06:41:42.153Z,84.06
2023-02-19T06:42:43.759Z,84.00
2023-02-19T06:43:46.453Z,84.54
2023-02-19T06:44:48.091Z,83.86
2023-02-19T06:45:49.709Z,84.45
2023-02-19T06:46:51.848Z,84.35
2023-02-19T06:47:53.509Z,84.10
2023-02-19T06:48:55.102Z,84.47
2023-02-19T06:49:56.692Z,84.66
2023-02-19T06:50:58.429Z,83.96
2023-02-19T06:52:00.617Z,84.73
2023-02-19T06:53:02.302Z,84.60
2023-02-19T06:54:04.057Z,84.72
2023-02-19T06:55:05.737Z,84.64
2023-02-19T06:56:30.198Z,84.81
2023-02-19T06:57:31.821Z,84.66
2023-02-19T06:58:35.059Z,84.77
2023-02-19T06:59:36.643Z,85.34
2023-02-19T07:00:38.344Z,85.57
2023-02-19T07:01:40.665Z,85.71
2023-02-19T07:02:42.287Z,85.81
2023-02-19T07:03:43.986Z,86.33
2023-02-19T07:04:45.588Z,86.62
2023-02-19T07:05:47.528Z,86.82
2023-02-19T07:06:49.168Z,87.45
2023-02-19T07:07:50.953Z,87.25
2023-02-19T07:08:53.308Z,87.51
2023-02-19T07:09:54.933Z,87.43
2023-02-19T07:10:59.705Z,87.90
2023-02-19T07:12:01.314Z,87.65
2023-02-19T07:13:02.986Z,88.07
2023-02-19T07:14:10.473Z,88.47
2023-02-19T07:15:12.094Z,88.60
2023-02-19T07:16:14.383Z,88.50
2023-02-19T07:17:16.012Z,88.31
2023-02-19T07:18:17.589Z,87.92
2023-02-19T07:19:19.295Z,87.62
2023-02-19T07:20:20.897Z,88.28
2023-02-19T07:21:22.648Z,87.93
2023-02-19T07:22:24.221Z,87.76
2023-02-19T07:23:25.798Z,88.31
2023-02-19T07:24:27.421Z,87.93
2023-02-19T07:25:29.025Z,87.55
2023-02-19T07:26:30.647Z,87.73
2023-02-19T07:27:32.265Z,87.40
2023-02-19T07:28:33.876Z,87.77
2023-02-19T07:29:35.454Z,87.85
2023-02-19T07:30:37.102Z,87.35
2023-02-19T07:31:38.939Z,87.54
2023-02-19T07:32:41.774Z,87.42
2023-02-19T07:33:44.600Z,87.59
2023-02-19T07:34:46.204Z,86.88
2023-02-19T07:35:48.776Z,87.67
2023-02-19T07:36:50.447Z,87.63
2023-02-19T07:37:52.051Z,87.15
2023-02-19T07:38:55.357Z,87.48
2023-02-19T07:39:56.977Z,87.49
2023-02-19T07:41:00.595Z,87.20
2023-02-19T07:42:02.204Z,86.78
2023-02-19T07:43:06.930Z,86.89
2023-02-19T07:44:08.497Z,87.11
2023-02-19T07:45:10.272Z,87.09
2023-02-19T07:46:13.532Z,86.76
2023-02-19T07:47:15.149Z,86.63
2023-02-19T07:48:17.437Z,86.88
2023-02-19T07:49:19.136Z,86.68
2023-02-19T07:50:20.728Z,86.55
2023-02-19T07:51:23.078Z,86.80
2023-02-19T07:52:24.746Z,86.94
2023-02-19T07:53:27.346Z,86.55
2023-02-19T07:54:28.975Z,86.26
2023-02-19T07:55:32.039Z,86.77
2023-02-19T07:56:33.875Z,86.62
2023-02-19T07:57:35.487Z,86.09
2023-02-19T07:58:37.101Z,86.33
2023-02-19T07:59:38.656Z,86.36
2023-02-19T08:00:40.666Z,85.89
2023-02-19T08:02:00.770Z,86.23
2023-02-19T08:03:03.124Z,85.88
2023-02-19T08:04:04.756Z,85.62
2023-02-19T08:05:06.848Z,85.90
2023-02-19T08:06:11.119Z,85.14
2023-02-19T08:07:12.806Z,84.97
2023-02-19T08:08:14.958Z,84.27
2023-02-19T08:09:16.592Z,84.90
2023-02-19T08:10:36.939Z,84.37
2023-02-19T08:11:57.253Z,84.39
2023-02-19T08:13:18.246Z,83.92
2023-02-19T08:14:20.195Z,84.43
2023-02-19T08:15:22.527Z,84.11
2023-02-19T08:16:40.779Z,83.96
2023-02-19T08:17:44.432Z,84.04
2023-02-19T08:18:47.769Z,82.87
2023-02-19T08:19:49.377Z,82.50
2023-02-19T08:20:51.373Z,82.85
2023-02-19T08:21:53.670Z,81.97
2023-02-19T08:22:55.335Z,82.05
2023-02-19T08:23:56.925Z,82.48
2023-02-19T08:24:58.482Z,82.03
2023-02-19T08:26:01.309Z,82.34
2023-02-19T08:27:02.908Z,83.24
2023-02-19T08:28:05.116Z,82.63
2023-02-19T08:29:06.954Z,82.65
2023-02-19T08:30:09.077Z,82.60
2023-02-19T08:31:12.316Z,82.18
2023-02-19T08:32:14.216Z,82.64
2023-02-19T08:33:18.032Z,82.13
2023-02-19T08:34:19.678Z,81.99
2023-02-19T08:35:21.767Z,81.48
2023-02-19T08:36:23.438Z,81.21
2023-02-19T08:37:25.062Z,80.08
2023-02-19T08:38:26.703Z,80.56
2023-02-19T08:39:28.388Z,79.54
2023-02-19T08:40:30.010Z,78.81
2023-02-19T08:41:31.621Z,78.53
2023-02-19T08:42:33.195Z,78.79
2023-02-19T08:43:34.981Z,78.23
2023-02-19T08:44:36.602Z,79.72
2023-02-19T08:45:39.459Z,79.96
2023-02-19T08:46:41.150Z,81.66
2023-02-19T08:47:42.824Z,82.38
2023-02-19T08:48:44.498Z,82.17
2023-02-19T08:49:46.161Z,82.35
2023-02-19T08:51:12.016Z,83.01
2023-02-19T08:52:13.827Z,83.35
2023-02-19T08:53:15.419Z,83.35
2023-02-19T08:54:17.033Z,82.80
2023-02-19T08:55:18.874Z,81.57
2023-02-19T08:56:20.619Z,81.64
2023-02-19T08:57:22.490Z,81.25
2023-02-19T08:58:26.251Z,81.83
2023-02-19T08:59:29.175Z,82.58
2023-02-19T09:00:30.807Z,82.39
2023-02-19T09:01:32.458Z,82.56
2023-02-19T09:02:34.094Z,83.00
2023-02-19T09:03:35.754Z,82.95
2023-02-19T09:04:38.213Z,83.33
2023-02-19T09:05:39.786Z,83.34
2023-02-19T09:06:41.476Z,84.45
2023-02-19T09:07:43.239Z,84.47
2023-02-19T09:08:44.977Z,84.63
2023-02-19T09:09:46.562Z,84.91
2023-02-19T09:10:58.109Z,85.41
2023-02-19T09:11:59.808Z,85.27
2023-02-19T09:13:02.575Z,85.67
2023-02-19T09:14:07.434Z,85.98
2023-02-19T09:15:09.147Z,86.18
2023-02-19T09:16:11.470Z,86.01
2023-02-19T09:17:13.236Z,84.15
2023-02-19T09:18:14.843Z,83.16
2023-02-19T09:19:16.447Z,79.99
2023-02-19T09:20:18.257Z,74.03
2023-02-19T09:21:19.827Z,69.57
2023-02-19T09:22:21.619Z,71.16
2023-02-19T09:23:23.180Z,69.14
2023-02-19T09:24:25.101Z,71.15
2023-02-19T09:25:26.787Z,73.14
2023-02-19T09:26:28.408Z,73.90
2023-02-19T09:27:31.737Z,75.00
2023-02-19T09:28:33.719Z,75.02
2023-02-19T09:29:35.298Z,70.56
2023-02-19T09:30:36.992Z,70.94
2023-02-19T09:31:38.706Z,72.31
2023-02-19T09:32:40.361Z,73.00
2023-02-19T09:33:43.666Z,71.42
2023-02-19T09:34:45.457Z,64.92
2023-02-19T09:35:47.043Z,68.91
2023-02-19T09:36:49.727Z,68.84
2023-02-19T09:37:51.351Z,69.66
2023-02-19T09:38:53.429Z,70.10
2023-02-19T09:39:55.508Z,70.91
2023-02-19T09:40:57.968Z,70.71
2023-02-19T09:42:19.765Z,68.07
2023-02-19T09:43:22.947Z,67.61
2023-02-19T09:44:29.344Z,65.78
2023-02-19T09:45:30.947Z,67.93
2023-02-19T09:46:36.023Z,68.36
2023-02-19T09:47:37.824Z,69.02
2023-02-19T09:48:39.451Z,69.28
2023-02-19T09:49:43.561Z,65.74
2023-02-19T09:50:47.517Z,62.30
2023-02-19T09:51:52.736Z,58.21
2023-02-19T09:52:57.232Z,53.14
2023-02-19T09:53:59.124Z,52.37
2023-02-19T09:55:14.582Z,54.78
2023-02-19T09:56:17.209Z,57.46
2023-02-19T09:57:20.935Z,59.97
2023-02-19T09:58:27.017Z,61.45
2023-02-19T09:59:36.203Z,63.29
2023-02-19T10:00:37.973Z,63.08
2023-02-19T10:01:40.546Z,64.56
2023-02-19T10:02:42.136Z,64.51
2023-02-19T10:03:48.294Z,64.71
2023-02-19T10:04:51.285Z,66.17
2023-02-19T10:05:53.428Z,67.02
2023-02-19T10:07:00.677Z,66.26
2023-02-19T10:08:05.277Z,66.30
2023-02-19T10:09:25.910Z,66.61
2023-02-19T10:10:31.438Z,67.39
2023-02-19T10:11:33.094Z,66.19
2023-02-19T10:12:35.141Z,67.63
2023-02-19T10:13:43.285Z,66.55
2023-02-19T10:14:48.097Z,65.40
2023-02-19T10:15:54.796Z,65.17
2023-02-19T10:16:59.214Z,64.44
2023-02-19T10:18:00.873Z,62.55
2023-02-19T10:19:02.504Z,61.60
2023-02-19T10:20:04.648Z,56.13
2023-02-19T10:21:06.984Z,51.50
2023-02-19T10:22:11.677Z,53.06
2023-02-19T10:23:15.313Z,53.92
2023-02-19T10:24:21.024Z,51.47
2023-02-19T10:25:22.532Z,49.29
2023-02-19T10:26:24.344Z,46.99
2023-02-19T10:27:31.992Z,48.24
2023-02-19T10:28:34.801Z,46.91
2023-02-19T10:29:37.105Z,44.90
2023-02-19T10:30:38.775Z,42.25
2023-02-19T10:31:40.483Z,45.96
2023-02-19T10:33:05.009Z,44.23
2023-02-19T10:34:18.049Z,42.70
2023-02-19T10:35:19.890Z,43.66
2023-02-19T10:36:36.162Z,46.44
2023-02-19T10:37:49.071Z,49.00
2023-02-19T10:38:50.865Z,49.77
2023-02-19T10:39:52.936Z,46.86
2023-02-19T10:41:08.860Z,45.95
2023-02-19T10:42:21.991Z,42.87
2023-02-19T10:43:31.542Z,43.04
2023-02-19T10:44:41.522Z,41.92
2023-02-19T10:45:47.832Z,40.35
2023-02-19T10:46:51.866Z,45.75
2023-02-19T10:47:53.620Z,45.89
2023-02-19T10:49:06.605Z,44.89
2023-02-19T10:50:44.529Z,43.63
2023-02-19T10:51:47.725Z,46.91
2023-02-19T10:52:54.749Z,50.55
2023-02-19T10:54:05.397Z,55.03
2023-02-19T10:55:28.391Z,57.87
2023-02-19T10:56:31.430Z,61.48
2023-02-19T10:57:34.566Z,63.15
2023-02-19T10:58:37.852Z,63.90
2023-02-19T10:59:49.932Z,65.50
2023-02-19T11:01:19.450Z,65.56
2023-02-19T11:02:21.861Z,64.50
2023-02-19T11:03:24.067Z,63.66
2023-02-19T11:04:35.303Z,61.32
2023-02-19T11:05:39.233Z,58.92
2023-02-19T11:06:40.809Z,57.65
2023-02-19T11:07:54.713Z,50.18
2023-02-19T11:09:00.145Z,48.43
2023-02-19T11:10:02.257Z,50.27
2023-02-19T11:11:04.017Z,52.04
2023-02-19T11:12:08.360Z,53.99
2023-02-19T11:13:15.089Z,56.35
2023-02-19T11:14:23.807Z,57.35
2023-02-19T11:15:28.120Z,56.97
2023-02-19T11:16:44.502Z,57.23
2023-02-19T11:17:46.123Z,57.48
2023-02-19T11:18:57.162Z,57.74
2023-02-19T11:20:01.714Z,56.47
2023-02-19T11:21:07.274Z,57.04
2023-02-19T11:22:30.600Z,56.23
2023-02-19T11:23:36.971Z,57.89
2023-02-19T11:24:40.562Z,56.07
2023-02-19T11:26:03.138Z,58.45
2023-02-19T11:27:07.662Z,55.66
2023-02-19T11:28:31.757Z,49.57
2023-02-19T11:29:37.116Z,46.57
2023-02-19T11:30:41.694Z,43.67
2023-02-19T11:31:43.508Z,48.10
2023-02-19T11:32:45.075Z,47.26
2023-02-19T11:33:57.371Z,50.06
2023-02-19T11:35:25.254Z,45.55
2023-02-19T11:36:36.666Z,48.36
2023-02-19T11:37:53.497Z,49.90
2023-02-19T11:38:55.742Z,53.78
2023-02-19T11:39:57.332Z,55.37
2023-02-19T11:41:27.901Z,54.44
2023-02-19T11:42:58.231Z,55.81
2023-02-19T11:44:18.468Z,55.87
2023-02-19T11:45:58.687Z,57.23
2023-02-19T11:47:31.249Z,56.80
2023-02-19T11:48:36.047Z,56.51
2023-02-19T11:49:55.605Z,57.82
2023-02-19T11:51:20.014Z,60.01
2023-02-19T11:52:35.836Z,63.39
2023-02-19T11:53:44.180Z,65.57
2023-02-19T11:54:56.944Z,67.81
2023-02-19T11:56:15.672Z,67.00
2023-02-19T11:57:23.128Z,67.45
2023-02-19T11:59:02.502Z,65.57
2023-02-19T12:00:22.662Z,66.11
2023-02-19T12:01:26.858Z,66.05
2023-02-19T12:02:40.582Z,65.30
2023-02-19T12:04:23.829Z,65.15
2023-02-19T12:05:37.347Z,65.38
2023-02-19T12:06:49.058Z,66.36
2023-02-19T12:08:24.376Z,65.35
2023-02-19T12:09:28.824Z,65.49
2023-02-19T12:10:33.346Z,65.79
2023-02-19T12:11:46.736Z,66.09
2023-02-19T12:13:13.395Z,65.47
2023-02-19T12:14:39.446Z,64.43
2023-02-19T12:15:49.986Z,64.22
2023-02-19T12:17:03.202Z,64.60
2023-02-19T12:18:36.842Z,63.67
2023-02-19T12:19:53.343Z,63.32
2023-02-19T12:21:25.657Z,63.94
2023-02-19T12:22:29.957Z,62.04
2023-02-19T12:23:59.541Z,62.07
2023-02-19T12:25:23.898Z,61.33
2023-02-19T12:26:31.036Z,60.72
2023-02-19T12:27:38.346Z,60.67
2023-02-19T12:28:52.111Z,60.71
2023-02-19T12:30:05.845Z,62.04
2023-02-19T12:31:32.982Z,61.50
2023-02-19T12:32:56.610Z,62.44
2023-02-19T12:34:29.049Z,62.33
2023-02-19T12:35:37.601Z,62.77
2023-02-19T12:36:41.812Z,61.59
2023-02-19T12:38:02.220Z,61.90
2023-02-19T12:39:06.830Z,60.79
2023-02-19T12:40:21.073Z,61.34
2023-02-19T12:41:30.757Z,61.14
2023-02-19T12:43:16.989Z,60.70
2023-02-19T12:44:31.235Z,60.12
2023-02-19T12:45:41.003Z,60.89
2023-02-19T12:46:46.975Z,61.66
2023-02-19T12:47:59.766Z,61.07
2023-02-19T12:49:14.319Z,60.97
2023-02-19T12:50:19.636Z,61.43
2023-02-19T12:51:22.581Z,62.42
2023-02-19T12:52:28.604Z,62.11
2023-02-19T12:53:35.228Z,61.95
2023-02-19T12:54:45.766Z,62.27
2023-02-19T12:55:47.705Z,64.23
2023-02-19T12:56:55.475Z,62.97
2023-02-19T12:58:01.376Z,62.87
2023-02-19T12:59:08.513Z,63.35
2023-02-19T13:00:35.886Z,63.47
2023-02-19T13:02:03.348Z,63.96
2023-02-19T13:03:20.927Z,63.83
2023-02-19T13:04:42.897Z,64.27
2023-02-19T13:05:49.762Z,63.62
2023-02-19T13:06:54.409Z,64.41
2023-02-19T13:08:04.047Z,64.04
2023-02-19T13:09:38.127Z,63.43
2023-02-19T13:10:44.682Z,62.94
2023-02-19T13:11:53.047Z,63.09
2023-02-19T13:12:57.862Z,61.94
2023-02-19T13:14:22.955Z,61.45
2023-02-19T13:15:34.478Z,60.44
2023-02-19T13:16:39.783Z,61.13
2023-02-19T13:17:46.898Z,61.78
2023-02-19T13:18:56.866Z,60.34
2023-02-19T13:20:04.978Z,59.83
2023-02-19T13:21:06.874Z,60.16
2023-02-19T13:22:41.296Z,60.94
2023-02-19T13:24:03.158Z,61.16
2023-02-19T13:25:06.168Z,60.72
2023-02-19T13:26:41.708Z,60.84
2023-02-19T13:28:08.206Z,59.94
2023-02-19T13:29:09.744Z,60.81
2023-02-19T13:30:20.191Z,59.71
2023-02-19T13:31:39.991Z,58.77
2023-02-19T13:33:05.188Z,59.15
2023-02-19T13:34:15.704Z,59.27
2023-02-19T13:35:43.296Z,59.32
2023-02-19T13:36:45.264Z,59.50
2023-02-19T13:37:47.379Z,60.71
2023-02-19T13:38:50.243Z,61.36
2023-02-19T13:39:53.869Z,61.09
2023-02-19T13:41:00.153Z,61.26
2023-02-19T13:42:02.141Z,62.79
2023-02-19T13:43:19.182Z,62.32
2023-02-19T13:44:25.102Z,62.86
2023-02-19T13:45:42.542Z,62.67
2023-02-19T13:46:46.346Z,63.62
2023-02-19T13:47:53.989Z,62.83
2023-02-19T13:49:23.682Z,63.36
2023-02-19T13:50:28.287Z,63.69
2023-02-19T13:51:40.003Z,63.33
2023-02-19T13:52:41.843Z,62.94
2023-02-19T13:53:44.663Z,62.67
2023-02-19T13:54:46.334Z,62.58
2023-02-19T13:55:51.934Z,61.81
2023-02-19T13:57:18.244Z,62.34
2023-02-19T13:58:37.155Z,63.14
2023-02-19T13:59:40.385Z,62.58
2023-02-19T14:00:50.576Z,61.91
2023-02-19T14:01:55.058Z,61.63
2023-02-19T14:03:34.764Z,62.59
2023-02-19T14:04:55.628Z,62.75
2023-02-19T14:06:06.455Z,63.20
2023-02-19T14:07:07.995Z,62.99
2023-02-19T14:08:09.710Z,63.64
2023-02-19T14:09:40.691Z,63.58
2023-02-19T14:10:58.256Z,64.19
2023-02-19T14:12:16.061Z,64.48
2023-02-19T14:14:06.836Z,62.52
2023-02-19T14:15:36.584Z,62.74
2023-02-19T14:16:38.154Z,63.46
2023-02-19T14:17:42.172Z,63.25
2023-02-19T14:18:45.948Z,62.64
2023-02-19T14:20:05.027Z,62.61
2023-02-19T14:21:15.861Z,63.24
2023-02-19T14:22:45.594Z,62.53